Time;durP1;ratioP1;P1;durP2;ratioP2;P2;SDS_P1;SDS_P2;PMS_P1;PMS_P2;Temp;Humidity;BMP_temperature;BMP_pressure;BME280_temperature;BME280_humidity;BME280_pressure;Samples;Min_cycle;Max_cycle;Signal;HPM_P1;HPM_P2
2023/10/26 00:01:15;;;;;;;1.67;1.67;;;;;;;;;;5042923;28;20045;-60
2023/10/26 00:03:43;;;;;;;1.30;1.30;;;;;;;;;;5040715;28;20056;-60
2023/10/26 00:06:12;;;;;;;1.40;1.40;;;;;;;;;;5040317;28;20049;-60
2023/10/26 00:08:40;;;;;;;1.30;1.30;;;;;;;;;;5042162;28;20503;-60
2023/10/26 00:11:09;;;;;;;1.50;1.40;;;;;;;;;;5039515;28;20053;-60
2023/10/26 00:13:37;;;;;;;1.52;1.50;;;;;;;;;;5037077;28;20045;-60
2023/10/26 00:16:07;;;;;;;1.40;1.40;;;;;;;;;;5040260;28;20076;-59
2023/10/26 00:18:36;;;;;;;1.50;1.50;;;;;;;;;;5041130;28;20110;-60
2023/10/26 00:21:04;;;;;;;1.50;1.40;;;;;;;;;;5038662;28;20076;-60
2023/10/26 00:23:33;;;;;;;1.40;1.40;;;;;;;;;;5043810;28;20059;-60
2023/10/26 00:26:01;;;;;;;1.40;1.40;;;;;;;;;;5042762;28;20077;-61
2023/10/26 00:28:29;;;;;;;1.65;1.55;;;;;;;;;;5044050;28;20068;-61
2023/10/26 00:30:58;;;;;;;1.50;1.50;;;;;;;;;;5043394;28;20077;-59
2023/10/26 00:33:27;;;;;;;1.45;1.45;;;;;;;;;;5039634;28;20084;-60
2023/10/26 00:35:56;;;;;;;1.50;1.50;;;;;;;;;;5042032;28;20041;-60
2023/10/26 00:38:24;;;;;;;1.50;1.50;;;;;;;;;;5037465;28;20375;-60
2023/10/26 00:40:53;;;;;;;1.58;1.50;;;;;;;;;;5041032;28;20118;-60
2023/10/26 00:43:21;;;;;;;1.70;1.60;;;;;;;;;;5043985;28;20142;-60
2023/10/26 00:45:52;;;;;;;2.10;1.58;;;;;;;;;;5044113;28;20390;-61
2023/10/26 00:48:21;;;;;;;2.35;1.60;;;;;;;;;;5042523;28;20053;-61
2023/10/26 00:50:51;;;;;;;1.90;1.80;;;;;;;;;;5040914;28;20413;-60
2023/10/26 00:53:20;;;;;;;1.50;1.50;;;;;;;;;;5045060;28;20049;-60
2023/10/26 00:55:50;;;;;;;1.70;1.60;;;;;;;;;;5042627;28;20414;-60
2023/10/26 00:58:18;;;;;;;1.70;1.60;;;;;;;;;;5043329;28;20118;-60
2023/10/26 01:00:47;;;;;;;1.60;1.60;;;;;;;;;;5044533;28;20461;-61
2023/10/26 01:03:15;;;;;;;1.55;1.52;;;;;;;;;;5040226;28;20045;-60
2023/10/26 01:05:44;;;;;;;1.70;1.70;;;;;;;;;;5041539;28;20103;-60
2023/10/26 01:08:13;;;;;;;1.70;1.70;;;;;;;;;;5042274;28;20119;-61
2023/10/26 01:10:42;;;;;;;2.60;2.50;;;;;;;;;;5041195;28;20073;-61
2023/10/26 01:13:11;;;;;;;2.08;1.98;;;;;;;;;;5041591;28;20041;-60
2023/10/26 01:15:40;;;;;;;1.90;1.80;;;;;;;;;;5041564;28;20056;-61
2023/10/26 01:18:08;;;;;;;1.73;1.63;;;;;;;;;;5037107;28;20053;-61
2023/10/26 01:20:41;;;;;;;1.50;1.50;;;;;;;;;;5043368;28;20569;-60
2023/10/26 01:23:11;;;;;;;1.60;1.60;;;;;;;;;;5041202;28;20656;-60
2023/10/26 01:25:39;;;;;;;1.58;1.58;;;;;;;;;;5043094;28;20049;-61
2023/10/26 01:28:08;;;;;;;1.50;1.50;;;;;;;;;;5042368;28;20044;-61
2023/10/26 01:30:36;;;;;;;1.30;1.30;;;;;;;;;;5041185;28;20060;-61
2023/10/26 01:33:05;;;;;;;1.38;1.30;;;;;;;;;;5042063;28;20102;-60
2023/10/26 01:35:38;;;;;;;1.40;1.40;;;;;;;;;;5040399;28;20053;-61
2023/10/26 01:38:06;;;;;;;1.40;1.40;;;;;;;;;;5041520;28;20037;-61
2023/10/26 01:40:36;;;;;;;1.60;1.50;;;;;;;;;;5043011;28;20463;-61
2023/10/26 01:43:05;;;;;;;1.40;1.40;;;;;;;;;;5043824;28;20060;-61
2023/10/26 01:45:33;;;;;;;1.40;1.40;;;;;;;;;;5042789;28;20490;-61
2023/10/26 01:48:03;;;;;;;1.42;1.42;;;;;;;;;;5040528;28;20346;-60
2023/10/26 01:50:32;;;;;;;1.45;1.45;;;;;;;;;;5040717;28;20096;-60
2023/10/26 01:53:01;;;;;;;1.35;1.35;;;;;;;;;;5043930;28;20457;-60
2023/10/26 01:55:29;;;;;;;1.60;1.50;;;;;;;;;;5043633;28;20419;-61
2023/10/26 01:57:59;;;;;;;1.30;1.30;;;;;;;;;;5040887;28;20098;-61
2023/10/26 02:00:27;;;;;;;1.40;1.40;;;;;;;;;;5041104;28;20114;-60
2023/10/26 02:02:56;;;;;;;1.58;1.48;;;;;;;;;;5038200;28;20046;-61
2023/10/26 02:05:26;;;;;;;1.40;1.40;;;;;;;;;;5038839;28;20072;-61
2023/10/26 02:07:55;;;;;;;1.40;1.40;;;;;;;;;;5039750;28;20049;-61
2023/10/26 02:10:23;;;;;;;1.60;1.50;;;;;;;;;;5041355;28;20049;-60
2023/10/26 02:12:52;;;;;;;1.40;1.40;;;;;;;;;;5041014;28;20050;-60
2023/10/26 02:15:22;;;;;;;1.50;1.40;;;;;;;;;;5041614;28;20084;-60
2023/10/26 02:17:50;;;;;;;1.50;1.50;;;;;;;;;;5038455;28;20052;-60
2023/10/26 02:20:19;;;;;;;1.30;1.30;;;;;;;;;;5041283;28;20045;-59
2023/10/26 02:22:47;;;;;;;1.45;1.45;;;;;;;;;;5042756;28;20103;-60
2023/10/26 02:25:16;;;;;;;1.55;1.55;;;;;;;;;;5047182;28;20080;-60
2023/10/26 02:27:44;;;;;;;1.40;1.40;;;;;;;;;;5043524;28;20045;-61
2023/10/26 02:30:13;;;;;;;1.33;1.33;;;;;;;;;;5045364;28;20452;-59
2023/10/26 02:32:43;;;;;;;1.40;1.40;;;;;;;;;;5046729;28;20045;-60
2023/10/26 02:35:12;;;;;;;1.63;1.60;;;;;;;;;;5046907;28;20079;-61
2023/10/26 02:37:40;;;;;;;2.55;1.40;;;;;;;;;;5045642;28;20060;-60
2023/10/26 02:40:09;;;;;;;1.50;1.50;;;;;;;;;;5044088;28;20049;-60
2023/10/26 02:42:39;;;;;;;1.50;1.40;;;;;;;;;;5045365;28;20051;-59
2023/10/26 02:45:08;;;;;;;1.30;1.30;;;;;;;;;;5047655;28;20075;-60
2023/10/26 02:47:38;;;;;;;1.40;1.40;;;;;;;;;;5044677;28;20051;-59
2023/10/26 02:50:08;;;;;;;1.40;1.40;;;;;;;;;;5046019;28;20071;-60
2023/10/26 02:52:37;;;;;;;1.30;1.30;;;;;;;;;;5041739;28;20064;-60
2023/10/26 02:55:07;;;;;;;1.40;1.40;;;;;;;;;;5042784;28;20044;-60
2023/10/26 02:57:35;;;;;;;1.50;1.50;;;;;;;;;;5045110;28;20446;-60
2023/10/26 03:00:05;;;;;;;1.60;1.60;;;;;;;;;;5042245;28;20053;-60
2023/10/26 03:02:34;;;;;;;1.55;1.55;;;;;;;;;;5042778;28;20128;-59
2023/10/26 03:05:02;;;;;;;1.67;1.67;;;;;;;;;;5045558;28;20049;-59
2023/10/26 03:07:33;;;;;;;1.50;1.50;;;;;;;;;;5041881;28;20135;-60
2023/10/26 03:10:01;;;;;;;1.30;1.30;;;;;;;;;;5043408;28;20057;-59
2023/10/26 03:12:30;;;;;;;1.42;1.42;;;;;;;;;;5044464;28;20599;-60
2023/10/26 03:14:58;;;;;;;1.50;1.50;;;;;;;;;;5046137;28;20075;-59
2023/10/26 03:17:27;;;;;;;1.50;1.50;;;;;;;;;;5044058;28;20049;-59
2023/10/26 03:19:55;;;;;;;1.40;1.40;;;;;;;;;;5041330;28;20045;-59
2023/10/26 03:22:23;;;;;;;1.50;1.50;;;;;;;;;;5044376;28;20490;-60
2023/10/26 03:24:53;;;;;;;1.45;1.45;;;;;;;;;;5045029;28;20045;-59
2023/10/26 03:27:22;;;;;;;1.45;1.45;;;;;;;;;;5043615;28;20072;-59
2023/10/26 03:29:50;;;;;;;1.33;1.33;;;;;;;;;;5044551;28;20073;-59
2023/10/26 03:32:18;;;;;;;1.38;1.38;;;;;;;;;;5045389;28;20083;-60
2023/10/26 03:34:48;;;;;;;2.10;1.60;;;;;;;;;;5045038;28;20056;-59
2023/10/26 03:37:17;;;;;;;1.50;1.45;;;;;;;;;;5042512;28;20481;-60
2023/10/26 03:39:46;;;;;;;2.25;1.40;;;;;;;;;;5044375;28;20033;-60
2023/10/26 03:42:15;;;;;;;1.58;1.45;;;;;;;;;;5044618;28;20049;-60
2023/10/26 03:44:44;;;;;;;1.40;1.40;;;;;;;;;;5041456;28;20494;-60
2023/10/26 03:47:12;;;;;;;1.50;1.50;;;;;;;;;;5042685;28;20048;-59
2023/10/26 03:49:41;;;;;;;1.58;1.48;;;;;;;;;;5041125;28;20053;-60
2023/10/26 03:52:09;;;;;;;1.60;1.55;;;;;;;;;;5043382;28;20532;-59
2023/10/26 03:54:38;;;;;;;1.50;1.40;;;;;;;;;;5043854;28;20045;-60
2023/10/26 03:57:07;;;;;;;1.50;1.50;;;;;;;;;;5044176;28;20478;-60
2023/10/26 03:59:37;;;;;;;1.45;1.45;;;;;;;;;;5038385;28;20051;-60
2023/10/26 04:02:05;;;;;;;2.08;1.55;;;;;;;;;;5037352;28;20081;-59
2023/10/26 04:04:34;;;;;;;1.73;1.63;;;;;;;;;;5041835;28;20131;-60
2023/10/26 04:07:02;;;;;;;1.50;1.50;;;;;;;;;;5042160;28;20045;-59
2023/10/26 04:09:30;;;;;;;1.60;1.50;;;;;;;;;;5043786;28;20045;-59
2023/10/26 04:11:59;;;;;;;1.50;1.50;;;;;;;;;;5043965;28;20049;-59
2023/10/26 04:14:26;;;;;;;1.42;1.42;;;;;;;;;;5042853;28;20045;-60
2023/10/26 04:16:56;;;;;;;1.40;1.40;;;;;;;;;;5040993;28;20567;-60
2023/10/26 04:19:25;;;;;;;1.92;1.83;;;;;;;;;;5039465;28;20401;-60
2023/10/26 04:21:53;;;;;;;1.50;1.50;;;;;;;;;;5038434;28;20583;-59
2023/10/26 04:24:21;;;;;;;7.13;1.75;;;;;;;;;;5043074;28;20053;-59
2023/10/26 04:26:50;;;;;;;1.50;1.50;;;;;;;;;;5043582;28;20124;-60
2023/10/26 04:29:18;;;;;;;2.25;1.40;;;;;;;;;;5042535;28;20103;-60
2023/10/26 04:31:47;;;;;;;1.55;1.50;;;;;;;;;;5041241;28;20546;-60
2023/10/26 04:34:17;;;;;;;1.60;1.50;;;;;;;;;;5042431;28;20049;-59
2023/10/26 04:36:45;;;;;;;2.75;1.70;;;;;;;;;;5039338;28;20071;-59
2023/10/26 04:39:15;;;;;;;1.90;1.80;;;;;;;;;;5036341;28;20506;-60
2023/10/26 04:41:44;;;;;;;1.63;1.52;;;;;;;;;;5039487;28;20760;-60
2023/10/26 04:44:13;;;;;;;1.67;1.58;;;;;;;;;;5032389;28;20076;-60
2023/10/26 04:46:41;;;;;;;1.70;1.60;;;;;;;;;;5033367;28;20092;-60
2023/10/26 04:49:10;;;;;;;2.67;1.65;;;;;;;;;;5029202;28;20134;-60
2023/10/26 04:51:39;;;;;;;1.73;1.63;;;;;;;;;;5030787;28;21173;-60
2023/10/26 04:54:08;;;;;;;1.70;1.60;;;;;;;;;;5038054;28;20095;-60
2023/10/26 04:56:36;;;;;;;1.50;1.50;;;;;;;;;;5045010;28;20481;-61
2023/10/26 04:59:05;;;;;;;1.60;1.60;;;;;;;;;;5033359;28;20515;-60
2023/10/26 05:01:33;;;;;;;1.75;1.65;;;;;;;;;;5039589;28;20098;-60
2023/10/26 05:04:01;;;;;;;1.83;1.73;;;;;;;;;;5040944;28;20502;-59
2023/10/26 05:06:30;;;;;;;1.52;1.52;;;;;;;;;;5042020;28;20060;-59
2023/10/26 05:09:00;;;;;;;1.63;1.50;;;;;;;;;;5039288;28;20048;-60
2023/10/26 05:11:30;;;;;;;1.80;1.70;;;;;;;;;;5042534;28;20557;-60
2023/10/26 05:13:59;;;;;;;1.75;1.65;;;;;;;;;;5042200;28;20057;-60
2023/10/26 05:16:27;;;;;;;1.67;1.58;;;;;;;;;;5038813;28;20103;-60
2023/10/26 05:18:55;;;;;;;1.60;1.50;;;;;;;;;;5036349;28;20243;-60
2023/10/26 05:21:24;;;;;;;1.60;1.50;;;;;;;;;;5043036;28;20041;-60
2023/10/26 05:23:52;;;;;;;1.67;1.60;;;;;;;;;;5040288;28;20045;-60
2023/10/26 05:26:22;;;;;;;1.77;1.67;;;;;;;;;;5041125;28;20102;-60
2023/10/26 05:28:50;;;;;;;1.50;1.50;;;;;;;;;;5038937;28;20057;-60
2023/10/26 05:31:19;;;;;;;1.80;1.70;;;;;;;;;;5039355;28;20052;-61
2023/10/26 05:33:47;;;;;;;1.67;1.58;;;;;;;;;;5035974;28;20064;-60
2023/10/26 05:36:16;;;;;;;1.60;1.60;;;;;;;;;;5040469;28;20060;-59
2023/10/26 05:38:44;;;;;;;1.60;1.60;;;;;;;;;;5041048;28;20475;-60
2023/10/26 05:41:14;;;;;;;1.73;1.73;;;;;;;;;;5041312;28;20056;-60
2023/10/26 05:43:44;;;;;;;1.63;1.60;;;;;;;;;;5042033;28;20056;-59
2023/10/26 05:46:13;;;;;;;1.80;1.70;;;;;;;;;;5043232;28;20041;-60
2023/10/26 05:48:42;;;;;;;1.70;1.60;;;;;;;;;;5040296;28;20520;-59
2023/10/26 05:51:11;;;;;;;1.50;1.50;;;;;;;;;;5042382;28;20048;-60
2023/10/26 05:53:39;;;;;;;1.92;1.80;;;;;;;;;;5038496;28;20053;-59
2023/10/26 05:56:08;;;;;;;1.70;1.60;;;;;;;;;;5041113;28;20053;-59
2023/10/26 05:58:37;;;;;;;1.77;1.67;;;;;;;;;;5046110;28;20149;-60
2023/10/26 06:01:07;;;;;;;2.00;1.90;;;;;;;;;;5043991;28;20103;-60
2023/10/26 06:03:35;;;;;;;2.00;1.90;;;;;;;;;;5046184;28;20041;-60
2023/10/26 06:06:04;;;;;;;1.80;1.70;;;;;;;;;;5045773;28;20587;-60
2023/10/26 06:08:32;;;;;;;1.70;1.60;;;;;;;;;;5046902;28;20631;-59
2023/10/26 06:11:01;;;;;;;1.67;1.58;;;;;;;;;;5046855;28;20502;-64
2023/10/26 06:13:29;;;;;;;1.90;1.80;;;;;;;;;;5048077;28;20139;-61
2023/10/26 06:15:57;;;;;;;1.80;1.70;;;;;;;;;;5044047;28;20038;-60
2023/10/26 06:18:27;;;;;;;1.80;1.70;;;;;;;;;;5047416;28;20057;-60
2023/10/26 06:20:59;;;;;;;1.80;1.70;;;;;;;;;;5048130;28;20114;-60
2023/10/26 06:23:28;;;;;;;1.83;1.73;;;;;;;;;;5043458;28;20764;-60
2023/10/26 06:26:00;;;;;;;2.90;1.67;;;;;;;;;;5047780;28;20056;-60
2023/10/26 06:28:29;;;;;;;4.05;2.00;;;;;;;;;;5046599;28;20110;-60
2023/10/26 06:31:08;;;;;;;1.55;1.55;;;;;;;;;;5047072;28;20052;-60
2023/10/26 06:33:38;;;;;;;1.50;1.50;;;;;;;;;;5043508;28;20049;-60
2023/10/26 06:36:07;;;;;;;1.90;1.80;;;;;;;;;;5043110;28;20151;-60
2023/10/26 06:38:36;;;;;;;1.70;1.60;;;;;;;;;;5046596;28;20156;-60
2023/10/26 06:41:04;;;;;;;1.65;1.63;;;;;;;;;;5047490;28;20052;-60
2023/10/26 06:43:33;;;;;;;1.58;1.58;;;;;;;;;;5047154;28;20489;-60
2023/10/26 06:46:01;;;;;;;1.65;1.60;;;;;;;;;;5045512;28;20448;-60
2023/10/26 06:48:29;;;;;;;1.83;1.73;;;;;;;;;;5046511;28;20080;-60
2023/10/26 06:51:00;;;;;;;1.70;1.70;;;;;;;;;;5047822;28;20071;-60
2023/10/26 06:53:28;;;;;;;1.88;1.77;;;;;;;;;;5040648;28;20606;-59
2023/10/26 06:55:57;;;;;;;1.80;1.70;;;;;;;;;;5044867;28;20398;-60
2023/10/26 06:58:26;;;;;;;1.70;1.60;;;;;;;;;;5044795;28;20512;-59
2023/10/26 07:00:54;;;;;;;1.90;1.80;;;;;;;;;;5044252;28;20386;-59
2023/10/26 07:03:24;;;;;;;1.67;1.60;;;;;;;;;;5045626;28;20051;-59
2023/10/26 07:05:53;;;;;;;1.40;1.40;;;;;;;;;;5046593;28;20456;-59
2023/10/26 07:08:22;;;;;;;1.50;1.50;;;;;;;;;;5044669;28;20095;-59
2023/10/26 07:10:51;;;;;;;1.70;1.60;;;;;;;;;;5042991;28;20110;-59
2023/10/26 07:13:19;;;;;;;1.85;1.75;;;;;;;;;;5042996;28;20041;-59
2023/10/26 07:15:48;;;;;;;1.80;1.65;;;;;;;;;;5036265;28;20057;-57
2023/10/26 07:18:18;;;;;;;1.52;1.52;;;;;;;;;;5044078;28;20044;-59
2023/10/26 07:20:48;;;;;;;1.70;1.60;;;;;;;;;;5045932;28;20052;-60
2023/10/26 07:23:17;;;;;;;2.15;1.55;;;;;;;;;;5044696;28;20593;-59
2023/10/26 07:25:48;;;;;;;1.40;1.40;;;;;;;;;;5044447;28;20052;-59
2023/10/26 07:28:18;;;;;;;1.70;1.60;;;;;;;;;;5045967;28;20049;-59
2023/10/26 07:30:50;;;;;;;1.83;1.73;;;;;;;;;;5044080;28;20098;-59
2023/10/26 07:33:19;;;;;;;1.40;1.40;;;;;;;;;;5045115;28;20077;-59
2023/10/26 07:35:51;;;;;;;1.55;1.45;;;;;;;;;;5043967;28;20061;-59
2023/10/26 07:38:20;;;;;;;1.65;1.55;;;;;;;;;;5043274;28;20478;-59
2023/10/26 07:41:07;;;;;;;1.40;1.40;;;;;;;;;;5044926;28;20702;-59
2023/10/26 07:43:36;;;;;;;1.50;1.50;;;;;;;;;;5044947;28;20052;-60
2023/10/26 07:46:04;;;;;;;1.80;1.70;;;;;;;;;;5044321;28;20516;-60
2023/10/26 07:48:35;;;;;;;1.40;1.40;;;;;;;;;;5045359;28;20674;-60
2023/10/26 07:51:04;;;;;;;1.60;1.50;;;;;;;;;;5044241;28;20080;-59
2023/10/26 07:53:33;;;;;;;1.60;1.50;;;;;;;;;;5044160;28;20072;-59
2023/10/26 07:56:01;;;;;;;1.40;1.40;;;;;;;;;;5042252;28;20049;-59
2023/10/26 07:58:33;;;;;;;1.50;1.50;;;;;;;;;;5042146;28;20045;-60
2023/10/26 08:01:07;;;;;;;1.48;1.48;;;;;;;;;;5042381;28;20055;-59
2023/10/26 08:03:35;;;;;;;1.43;1.43;;;;;;;;;;5043996;28;20136;-59
2023/10/26 08:06:06;;;;;;;1.40;1.40;;;;;;;;;;5042856;28;20072;-59
2023/10/26 08:08:35;;;;;;;1.50;1.50;;;;;;;;;;5043708;28;20052;-59
2023/10/26 08:11:10;;;;;;;1.70;1.60;;;;;;;;;;5042639;28;20040;-59
2023/10/26 08:13:40;;;;;;;1.40;1.40;;;;;;;;;;5042694;28;20069;-59
2023/10/26 08:16:09;;;;;;;1.33;1.33;;;;;;;;;;5041841;28;20045;-60
2023/10/26 08:18:57;;;;;;;1.60;1.50;;;;;;;;;;5041075;28;20470;-59
2023/10/26 08:21:26;;;;;;;1.50;1.40;;;;;;;;;;5041333;28;20053;-59
2023/10/26 08:23:54;;;;;;;1.65;1.55;;;;;;;;;;5042111;28;20603;-60
2023/10/26 08:26:23;;;;;;;1.50;1.50;;;;;;;;;;5041159;28;20048;-59
2023/10/26 08:28:52;;;;;;;1.30;1.30;;;;;;;;;;5042288;28;20098;-59
2023/10/26 08:31:40;;;;;;;1.55;1.50;;;;;;;;;;5042074;28;20053;-59
2023/10/26 08:34:12;;;;;;;3.63;1.50;;;;;;;;;;5040540;28;20099;-60
2023/10/26 08:36:40;;;;;;;1.70;1.60;;;;;;;;;;5036824;28;20501;-59
2023/10/26 08:39:16;;;;;;;1.40;1.40;;;;;;;;;;5042220;28;20557;-60
2023/10/26 08:41:50;;;;;;;1.65;1.55;;;;;;;;;;5038695;28;20199;-60
2023/10/26 08:44:20;;;;;;;1.40;1.40;;;;;;;;;;5043785;28;20045;-59
2023/10/26 08:46:50;;;;;;;1.40;1.40;;;;;;;;;;5043542;28;20061;-59
2023/10/26 08:49:19;;;;;;;1.50;1.40;;;;;;;;;;5043248;28;20048;-59
2023/10/26 08:51:47;;;;;;;1.50;1.40;;;;;;;;;;5039615;28;20103;-60
2023/10/26 08:54:15;;;;;;;1.48;1.48;;;;;;;;;;5042042;28;20076;-60
2023/10/26 08:56:44;;;;;;;1.50;1.50;;;;;;;;;;5042180;28;20119;-59
2023/10/26 08:59:12;;;;;;;1.40;1.40;;;;;;;;;;5041919;28;20528;-59
2023/10/26 09:01:45;;;;;;;1.52;1.42;;;;;;;;;;5040656;28;20048;-60
2023/10/26 09:04:14;;;;;;;1.70;1.60;;;;;;;;;;5040368;28;20044;-59
2023/10/26 09:06:45;;;;;;;1.60;1.50;;;;;;;;;;5042686;28;20136;-60
2023/10/26 09:09:14;;;;;;;1.40;1.40;;;;;;;;;;5042473;28;20064;-60
2023/10/26 09:11:43;;;;;;;1.48;1.40;;;;;;;;;;5044164;28;20528;-60
2023/10/26 09:14:15;;;;;;;1.50;1.40;;;;;;;;;;5041290;28;20049;-59
2023/10/26 09:16:46;;;;;;;1.40;1.40;;;;;;;;;;5044353;28;20092;-60
2023/10/26 09:19:15;;;;;;;1.60;1.60;;;;;;;;;;5042575;28;20130;-59
2023/10/26 09:21:50;;;;;;;1.40;1.38;;;;;;;;;;5043919;28;20044;-59
2023/10/26 09:24:20;;;;;;;1.60;1.50;;;;;;;;;;5044986;28;20056;-59
2023/10/26 09:26:49;;;;;;;1.67;1.55;;;;;;;;;;5043828;28;20409;-59
2023/10/26 09:29:19;;;;;;;1.73;1.63;;;;;;;;;;5041460;28;20057;-61
2023/10/26 09:31:56;;;;;;;1.30;1.30;;;;;;;;;;5041319;28;20123;-60
2023/10/26 09:34:27;;;;;;;1.58;1.48;;;;;;;;;;5048844;28;20049;-59
2023/10/26 09:36:59;;;;;;;1.60;1.50;;;;;;;;;;5047284;28;20148;-59
2023/10/26 09:39:30;;;;;;;1.75;1.65;;;;;;;;;;5044669;28;20076;-60
2023/10/26 09:42:00;;;;;;;1.40;1.40;;;;;;;;;;5043982;28;20077;-60
2023/10/26 09:44:28;;;;;;;1.63;1.52;;;;;;;;;;5045008;28;20041;-60
2023/10/26 09:46:58;;;;;;;1.60;1.50;;;;;;;;;;5047985;28;20114;-59
2023/10/26 09:49:28;;;;;;;1.70;1.60;;;;;;;;;;5046858;28;20048;-60
2023/10/26 09:51:58;;;;;;;1.52;1.52;;;;;;;;;;5046901;28;20049;-60
2023/10/26 09:54:29;;;;;;;1.60;1.52;;;;;;;;;;5044841;28;20052;-59
2023/10/26 09:56:59;;;;;;;1.60;1.50;;;;;;;;;;5046176;28;20084;-61
2023/10/26 09:59:29;;;;;;;1.60;1.50;;;;;;;;;;5044375;28;20118;-61
2023/10/26 10:01:58;;;;;;;2.00;1.90;;;;;;;;;;5047727;28;20075;-61
2023/10/26 10:04:37;;;;;;;2.10;2.00;;;;;;;;;;5043702;28;20076;-61
2023/10/26 10:07:06;;;;;;;1.95;1.85;;;;;;;;;;5047885;28;20566;-61
2023/10/26 10:09:54;;;;;;;1.40;1.40;;;;;;;;;;5042106;28;20048;-61
2023/10/26 10:12:34;;;;;;;1.80;1.70;;;;;;;;;;5044897;28;20044;-61
2023/10/26 10:15:06;;;;;;;1.50;1.50;;;;;;;;;;5047740;28;20056;-61
2023/10/26 10:17:36;;;;;;;;;;;;;;;;;;5046236;28;20091;-62
2023/10/26 10:20:29;;;;;;;1.50;1.40;;;;;;;;;;5045909;28;19921;-62
2023/10/26 10:22:59;;;;;;;1.60;1.50;;;;;;;;;;5028147;28;20045;-61
2023/10/26 10:25:49;;;;;;;1.40;1.40;;;;;;;;;;5044538;28;20041;-61
2023/10/26 10:28:19;;;;;;;1.30;1.30;;;;;;;;;;5041469;28;20049;-61
2023/10/26 10:30:55;;;;;;;1.52;1.42;;;;;;;;;;5044195;28;20076;-62
2023/10/26 10:33:25;;;;;;;1.50;1.40;;;;;;;;;;5045443;28;20045;-62
2023/10/26 10:36:00;;;;;;;1.40;1.40;;;;;;;;;;5044421;28;20076;-61
2023/10/26 10:38:29;;;;;;;1.42;1.42;;;;;;;;;;5043710;28;20049;-62
2023/10/26 10:41:18;;;;;;;2.45;1.70;;;;;;;;;;5045167;28;20551;-62
2023/10/26 10:43:48;;;;;;;1.67;1.58;;;;;;;;;;5041026;28;20041;-62
2023/10/26 10:46:18;;;;;;;1.80;1.70;;;;;;;;;;5046734;28;20107;-62
2023/10/26 10:49:16;;;;;;;2.55;1.70;;;;;;;;;;5044717;28;20045;-62
2023/10/26 10:51:45;;;;;;;1.50;1.40;;;;;;;;;;5001623;28;20631;-62
2023/10/26 10:54:15;;;;;;;1.88;1.77;;;;;;;;;;5046419;28;20044;-62
2023/10/26 10:57:06;;;;;;;3.45;3.25;;;;;;;;;;5043793;28;20041;-62
2023/10/26 10:59:36;;;;;;;3.55;3.25;;;;;;;;;;5042861;28;20056;-62
2023/10/26 11:02:08;;;;;;;3.20;2.90;;;;;;;;;;5045705;28;20391;-63
2023/10/26 11:04:36;;;;;;;2.20;2.10;;;;;;;;;;5047036;28;20048;-62
2023/10/26 11:07:18;;;;;;;2.10;1.90;;;;;;;;;;5041972;28;20432;-62
2023/10/26 11:09:47;;;;;;;1.80;1.70;;;;;;;;;;5046784;28;20049;-61
2023/10/26 11:12:16;;;;;;;2.35;1.88;;;;;;;;;;5043343;28;20053;-62
2023/10/26 11:14:52;;;;;;;1.73;1.63;;;;;;;;;;5044713;28;20134;-62
2023/10/26 11:17:21;;;;;;;1.60;1.50;;;;;;;;;;5043568;28;20075;-62
2023/10/26 11:19:51;;;;;;;1.88;1.77;;;;;;;;;;5043359;28;20496;-62
2023/10/26 11:22:20;;;;;;;1.70;1.60;;;;;;;;;;5041189;28;20045;-63
2023/10/26 11:24:49;;;;;;;2.25;1.73;;;;;;;;;;5045347;28;20061;-62
2023/10/26 11:27:18;;;;;;;1.67;1.58;;;;;;;;;;5042109;28;20559;-62
2023/10/26 11:29:47;;;;;;;1.80;1.70;;;;;;;;;;5045230;28;20045;-62
2023/10/26 11:32:20;;;;;;;2.45;1.50;;;;;;;;;;5040983;28;20477;-62
2023/10/26 11:35:06;;;;;;;1.80;1.70;;;;;;;;;;5045016;28;20049;-62
2023/10/26 11:37:35;;;;;;;2.10;1.58;;;;;;;;;;5042781;28;20536;-62
2023/10/26 11:40:04;;;;;;;1.85;1.75;;;;;;;;;;5043338;28;20049;-62
2023/10/26 11:42:45;;;;;;;1.40;1.40;;;;;;;;;;5044278;28;20130;-62
2023/10/26 11:45:15;;;;;;;1.70;1.60;;;;;;;;;;5044951;28;20049;-63
2023/10/26 11:47:51;;;;;;;1.65;1.50;;;;;;;;;;5042711;28;20049;-62
2023/10/26 11:50:24;;;;;;;1.50;1.45;;;;;;;;;;5043596;28;20052;-63
2023/10/26 11:52:53;;;;;;;1.60;1.50;;;;;;;;;;5044755;28;20425;-63
2023/10/26 11:55:22;;;;;;;1.40;1.40;;;;;;;;;;5043315;28;20069;-62
2023/10/26 11:57:51;;;;;;;1.67;1.58;;;;;;;;;;5038302;28;20053;-63
2023/10/26 12:00:20;;;;;;;1.63;1.52;;;;;;;;;;5039450;28;20128;-63
2023/10/26 12:02:48;;;;;;;1.42;1.40;;;;;;;;;;5043384;28;20498;-63
2023/10/26 12:05:19;;;;;;;1.60;1.50;;;;;;;;;;5040717;28;20044;-64
2023/10/26 12:07:48;;;;;;;1.70;1.60;;;;;;;;;;5041285;28;20068;-64
2023/10/26 12:10:17;;;;;;;1.50;1.40;;;;;;;;;;5043736;28;20048;-62
2023/10/26 12:12:46;;;;;;;1.63;1.52;;;;;;;;;;5042703;28;20059;-64
2023/10/26 12:15:14;;;;;;;1.40;1.40;;;;;;;;;;5039232;28;20587;-64
2023/10/26 12:17:42;;;;;;;1.50;1.40;;;;;;;;;;5042339;28;20056;-64
2023/10/26 12:20:11;;;;;;;1.40;1.30;;;;;;;;;;5039397;28;20412;-64
2023/10/26 12:22:41;;;;;;;1.30;1.30;;;;;;;;;;5043642;28;20044;-63
2023/10/26 12:25:10;;;;;;;1.35;1.35;;;;;;;;;;5041649;28;20084;-63
2023/10/26 12:27:39;;;;;;;1.60;1.50;;;;;;;;;;5041104;28;20040;-64
2023/10/26 12:30:27;;;;;;;1.50;1.40;;;;;;;;;;5042268;28;20069;-64
2023/10/26 12:32:56;;;;;;;1.60;1.50;;;;;;;;;;5038439;28;20426;-64
2023/10/26 12:35:25;;;;;;;1.40;1.40;;;;;;;;;;5040906;28;20422;-63
2023/10/26 12:37:55;;;;;;;1.63;1.52;;;;;;;;;;5038689;28;20356;-63
2023/10/26 12:40:23;;;;;;;1.60;1.50;;;;;;;;;;5039673;28;20049;-63
2023/10/26 12:42:53;;;;;;;1.58;1.48;;;;;;;;;;5036820;28;20056;-64
2023/10/26 12:45:21;;;;;;;1.48;1.40;;;;;;;;;;5043098;28;20052;-63
2023/10/26 12:47:50;;;;;;;1.50;1.40;;;;;;;;;;5034480;28;20044;-63
2023/10/26 12:50:18;;;;;;;1.50;1.40;;;;;;;;;;5041713;28;20056;-64
2023/10/26 12:52:47;;;;;;;1.70;1.60;;;;;;;;;;5042354;28;20122;-64
2023/10/26 12:55:17;;;;;;;1.50;1.50;;;;;;;;;;5039923;28;20053;-62
2023/10/26 12:57:45;;;;;;;1.40;1.40;;;;;;;;;;5030653;28;20052;-63
2023/10/26 13:00:13;;;;;;;1.42;1.40;;;;;;;;;;5039485;28;20098;-63
2023/10/26 13:02:42;;;;;;;1.30;1.30;;;;;;;;;;5042139;28;20057;-63
2023/10/26 13:05:10;;;;;;;1.25;1.25;;;;;;;;;;5041475;28;20121;-63
2023/10/26 13:07:38;;;;;;;1.30;1.30;;;;;;;;;;5039296;28;20095;-63
2023/10/26 13:10:08;;;;;;;1.20;1.20;;;;;;;;;;5038973;28;20041;-63
2023/10/26 13:12:39;;;;;;;1.30;1.30;;;;;;;;;;5044105;28;20480;-62
2023/10/26 13:15:08;;;;;;;1.20;1.20;;;;;;;;;;5040776;28;20071;-62
2023/10/26 13:17:36;;;;;;;1.40;1.40;;;;;;;;;;5042115;28;20623;-62
2023/10/26 13:20:05;;;;;;;1.30;1.30;;;;;;;;;;5040511;28;20057;-62
2023/10/26 13:22:33;;;;;;;1.38;1.30;;;;;;;;;;5042379;28;20052;-62
2023/10/26 13:25:02;;;;;;;1.40;1.30;;;;;;;;;;5041752;28;20049;-61
2023/10/26 13:27:31;;;;;;;1.25;1.25;;;;;;;;;;5039164;28;20079;-60
2023/10/26 13:30:01;;;;;;;1.33;1.33;;;;;;;;;;5040165;28;20508;-61
2023/10/26 13:32:29;;;;;;;1.52;1.42;;;;;;;;;;5039129;28;20053;-60
2023/10/26 13:34:58;;;;;;;1.52;1.45;;;;;;;;;;5040733;28;20510;-64
2023/10/26 13:37:26;;;;;;;1.50;1.40;;;;;;;;;;5040315;28;20049;-63
2023/10/26 13:39:54;;;;;;;1.40;1.40;;;;;;;;;;5035992;28;20494;-62
2023/10/26 13:42:26;;;;;;;1.48;1.40;;;;;;;;;;5041038;28;20041;-62
2023/10/26 13:44:55;;;;;;;1.60;1.50;;;;;;;;;;5042182;28;20056;-63
2023/10/26 13:47:25;;;;;;;1.65;1.50;;;;;;;;;;5037131;28;20437;-61
2023/10/26 13:49:53;;;;;;;1.50;1.40;;;;;;;;;;5040894;28;20048;-63
2023/10/26 13:52:21;;;;;;;1.33;1.30;;;;;;;;;;5043529;28;20442;-63
2023/10/26 13:54:50;;;;;;;1.42;1.33;;;;;;;;;;5038289;28;20095;-64
2023/10/26 13:57:18;;;;;;;1.58;1.48;;;;;;;;;;5039155;28;20131;-63
2023/10/26 13:59:47;;;;;;;1.50;1.40;;;;;;;;;;5040045;28;20148;-63
2023/10/26 14:02:19;;;;;;;1.88;1.60;;;;;;;;;;5038250;28;20041;-61
2023/10/26 14:04:48;;;;;;;1.50;1.40;;;;;;;;;;5037944;28;20053;-61
2023/10/26 14:07:17;;;;;;;1.60;1.55;;;;;;;;;;5042958;28;20053;-63
2023/10/26 14:09:45;;;;;;;2.15;1.67;;;;;;;;;;5041142;28;20552;-61
2023/10/26 14:12:15;;;;;;;1.40;1.40;;;;;;;;;;5042693;28;20049;-63
2023/10/26 14:14:44;;;;;;;1.60;1.50;;;;;;;;;;5040306;28;20045;-61
2023/10/26 14:17:13;;;;;;;1.60;1.50;;;;;;;;;;5041167;28;20041;-63
2023/10/26 14:19:41;;;;;;;1.60;1.50;;;;;;;;;;5040601;28;20045;-61
2023/10/26 14:22:11;;;;;;;1.70;1.60;;;;;;;;;;5046687;28;20048;-60
2023/10/26 14:24:41;;;;;;;1.60;1.50;;;;;;;;;;5043729;28;20048;-60
2023/10/26 14:27:11;;;;;;;1.40;1.30;;;;;;;;;;5038730;28;20044;-60
2023/10/26 14:29:39;;;;;;;2.63;2.00;;;;;;;;;;5042344;28;20036;-62
2023/10/26 14:32:08;;;;;;;2.47;2.03;;;;;;;;;;5043023;28;20068;-60
2023/10/26 14:34:37;;;;;;;1.50;1.40;;;;;;;;;;5043510;28;20053;-61
2023/10/26 14:37:05;;;;;;;1.35;1.33;;;;;;;;;;5041469;28;20041;-60
2023/10/26 14:39:35;;;;;;;2.08;1.60;;;;;;;;;;5041845;28;20454;-60
2023/10/26 14:42:04;;;;;;;1.77;1.65;;;;;;;;;;5034351;28;20072;-60
2023/10/26 14:44:32;;;;;;;2.80;1.65;;;;;;;;;;5040288;28;20053;-60
2023/10/26 14:47:01;;;;;;;1.80;1.70;;;;;;;;;;5045403;28;20541;-60
2023/10/26 14:49:29;;;;;;;1.70;1.60;;;;;;;;;;5040111;28;20060;-60
2023/10/26 14:51:57;;;;;;;2.10;1.60;;;;;;;;;;5039550;28;20052;-60
2023/10/26 14:54:26;;;;;;;2.22;1.63;;;;;;;;;;5038465;28;20099;-59
2023/10/26 14:56:56;;;;;;;2.65;1.70;;;;;;;;;;5046415;28;20103;-59
2023/10/26 14:59:24;;;;;;;1.60;1.50;;;;;;;;;;5043949;28;20453;-60